sensor_id;sensor_type;location;lat;lon;timestamp;P1;durP1;ratioP1;P2;durP2;ratioP2
75935;SDS011;64614;32.062;34.834;2023-10-13T00:01:27;5.95;;;3.67;;
75935;SDS011;64614;32.062;34.834;2023-10-13T00:03:53;5.95;;;3.42;;
75935;SDS011;64614;32.062;34.834;2023-10-13T00:08:44;6.97;;;3.67;;
75935;SDS011;64614;32.062;34.834;2023-10-13T00:11:14;6.80;;;3.65;;
75935;SDS011;64614;32.062;34.834;2023-10-13T00:13:40;6.35;;;3.70;;
75935;SDS011;64614;32.062;34.834;2023-10-13T00:16:18;6.78;;;3.40;;
75935;SDS011;64614;32.062;34.834;2023-10-13T00:18:47;6.32;;;3.47;;
75935;SDS011;64614;32.062;34.834;2023-10-13T00:23:45;6.60;;;3.63;;
75935;SDS011;64614;32.062;34.834;2023-10-13T00:26:24;5.32;;;3.50;;
75935;SDS011;64614;32.062;34.834;2023-10-13T00:28:57;5.82;;;3.30;;
75935;SDS011;64614;32.062;34.834;2023-10-13T00:31:41;5.60;;;3.35;;
75935;SDS011;64614;32.062;34.834;2023-10-13T00:34:13;6.10;;;3.40;;
75935;SDS011;64614;32.062;34.834;2023-10-13T00:37:06;5.30;;;3.20;;
75935;SDS011;64614;32.062;34.834;2023-10-13T00:39:43;7.30;;;3.60;;
75935;SDS011;64614;32.062;34.834;2023-10-13T00:42:12;6.13;;;3.13;;
75935;SDS011;64614;32.062;34.834;2023-10-13T00:44:49;5.50;;;3.40;;
75935;SDS011;64614;32.062;34.834;2023-10-13T00:47:15;5.70;;;3.38;;
75935;SDS011;64614;32.062;34.834;2023-10-13T00:50:06;6.00;;;3.30;;
75935;SDS011;64614;32.062;34.834;2023-10-13T00:52:36;6.18;;;3.58;;
75935;SDS011;64614;32.062;34.834;2023-10-13T00:55:06;7.45;;;3.80;;
75935;SDS011;64614;32.062;34.834;2023-10-13T00:57:34;6.45;;;3.85;;
75935;SDS011;64614;32.062;34.834;2023-10-13T01:00:01;7.43;;;3.90;;
75935;SDS011;64614;32.062;34.834;2023-10-13T01:02:42;7.53;;;3.78;;
75935;SDS011;64614;32.062;34.834;2023-10-13T01:05:08;6.10;;;3.70;;
75935;SDS011;64614;32.062;34.834;2023-10-13T01:07:45;8.20;;;4.10;;
75935;SDS011;64614;32.062;34.834;2023-10-13T01:10:15;7.75;;;4.07;;
75935;SDS011;64614;32.062;34.834;2023-10-13T01:12:41;7.50;;;4.30;;
75935;SDS011;64614;32.062;34.834;2023-10-13T01:15:09;8.02;;;4.40;;
75935;SDS011;64614;32.062;34.834;2023-10-13T01:17:36;8.43;;;4.30;;
75935;SDS011;64614;32.062;34.834;2023-10-13T01:20:02;9.30;;;4.53;;
75935;SDS011;64614;32.062;34.834;2023-10-13T01:22:33;7.47;;;3.97;;
75935;SDS011;64614;32.062;34.834;2023-10-13T01:24:58;9.25;;;4.93;;
75935;SDS011;64614;32.062;34.834;2023-10-13T01:27:36;8.60;;;4.88;;
75935;SDS011;64614;32.062;34.834;2023-10-13T01:30:03;7.97;;;4.22;;
75935;SDS011;64614;32.062;34.834;2023-10-13T01:32:48;8.18;;;4.50;;
75935;SDS011;64614;32.062;34.834;2023-10-13T01:35:17;9.43;;;4.93;;
75935;SDS011;64614;32.062;34.834;2023-10-13T01:38:01;9.82;;;4.82;;
75935;SDS011;64614;32.062;34.834;2023-10-13T01:40:26;7.85;;;4.53;;
75935;SDS011;64614;32.062;34.834;2023-10-13T01:42:54;10.32;;;5.32;;
75935;SDS011;64614;32.062;34.834;2023-10-13T01:45:20;8.65;;;4.68;;
75935;SDS011;64614;32.062;34.834;2023-10-13T01:47:46;10.32;;;5.40;;
75935;SDS011;64614;32.062;34.834;2023-10-13T01:50:16;8.82;;;4.68;;
75935;SDS011;64614;32.062;34.834;2023-10-13T01:52:52;10.43;;;5.00;;
75935;SDS011;64614;32.062;34.834;2023-10-13T01:55:29;11.43;;;5.20;;
75935;SDS011;64614;32.062;34.834;2023-10-13T01:57:54;8.90;;;5.00;;
75935;SDS011;64614;32.062;34.834;2023-10-13T02:00:20;8.85;;;4.95;;
75935;SDS011;64614;32.062;34.834;2023-10-13T02:02:46;8.57;;;4.80;;
75935;SDS011;64614;32.062;34.834;2023-10-13T02:05:15;10.45;;;4.82;;
75935;SDS011;64614;32.062;34.834;2023-10-13T02:07:42;8.63;;;5.07;;
75935;SDS011;64614;32.062;34.834;2023-10-13T02:10:13;9.57;;;5.28;;
75935;SDS011;64614;32.062;34.834;2023-10-13T02:12:39;8.98;;;5.15;;
75935;SDS011;64614;32.062;34.834;2023-10-13T02:15:16;10.18;;;5.00;;
75935;SDS011;64614;32.062;34.834;2023-10-13T02:17:54;8.93;;;5.00;;
75935;SDS011;64614;32.062;34.834;2023-10-13T02:20:29;9.75;;;5.00;;
75935;SDS011;64614;32.062;34.834;2023-10-13T02:23:06;9.75;;;4.53;;
75935;SDS011;64614;32.062;34.834;2023-10-13T02:25:35;11.15;;;4.90;;
75935;SDS011;64614;32.062;34.834;2023-10-13T02:28:11;7.85;;;4.75;;
75935;SDS011;64614;32.062;34.834;2023-10-13T02:30:41;9.85;;;5.30;;
75935;SDS011;64614;32.062;34.834;2023-10-13T02:33:13;8.35;;;4.50;;
75935;SDS011;64614;32.062;34.834;2023-10-13T02:35:47;10.77;;;5.35;;
75935;SDS011;64614;32.062;34.834;2023-10-13T02:38:21;9.07;;;4.60;;
75935;SDS011;64614;32.062;34.834;2023-10-13T02:41:04;9.60;;;5.35;;
75935;SDS011;64614;32.062;34.834;2023-10-13T02:43:36;9.93;;;5.00;;
75935;SDS011;64614;32.062;34.834;2023-10-13T02:46:02;9.60;;;5.20;;
75935;SDS011;64614;32.062;34.834;2023-10-13T02:48:29;10.45;;;5.32;;
75935;SDS011;64614;32.062;34.834;2023-10-13T02:51:04;10.25;;;4.85;;
75935;SDS011;64614;32.062;34.834;2023-10-13T02:53:35;10.38;;;5.50;;
75935;SDS011;64614;32.062;34.834;2023-10-13T02:56:01;9.95;;;4.95;;
75935;SDS011;64614;32.062;34.834;2023-10-13T02:58:31;11.15;;;5.50;;
75935;SDS011;64614;32.062;34.834;2023-10-13T03:01:08;9.18;;;4.95;;
75935;SDS011;64614;32.062;34.834;2023-10-13T03:03:49;8.93;;;5.00;;
75935;SDS011;64614;32.062;34.834;2023-10-13T03:06:23;11.07;;;5.75;;
75935;SDS011;64614;32.062;34.834;2023-10-13T03:08:57;9.70;;;5.30;;
75935;SDS011;64614;32.062;34.834;2023-10-13T03:11:45;10.45;;;5.80;;
75935;SDS011;64614;32.062;34.834;2023-10-13T03:14:14;10.15;;;5.35;;
75935;SDS011;64614;32.062;34.834;2023-10-13T03:16:54;10.20;;;4.97;;
75935;SDS011;64614;32.062;34.834;2023-10-13T03:19:31;13.02;;;5.55;;
75935;SDS011;64614;32.062;34.834;2023-10-13T03:22:05;11.70;;;5.63;;
75935;SDS011;64614;32.062;34.834;2023-10-13T03:24:40;10.98;;;5.63;;
75935;SDS011;64614;32.062;34.834;2023-10-13T03:27:18;12.32;;;5.47;;
75935;SDS011;64614;32.062;34.834;2023-10-13T03:30:04;10.40;;;5.00;;
75935;SDS011;64614;32.062;34.834;2023-10-13T03:32:35;10.20;;;4.95;;
75935;SDS011;64614;32.062;34.834;2023-10-13T03:35:08;9.50;;;5.45;;
75935;SDS011;64614;32.062;34.834;2023-10-13T03:37:53;8.45;;;5.05;;
75935;SDS011;64614;32.062;34.834;2023-10-13T03:40:20;11.25;;;5.55;;
75935;SDS011;64614;32.062;34.834;2023-10-13T03:42:52;11.23;;;5.20;;
75935;SDS011;64614;32.062;34.834;2023-10-13T03:48:14;10.63;;;5.32;;
75935;SDS011;64614;32.062;34.834;2023-10-13T03:50:49;9.73;;;5.60;;
75935;SDS011;64614;32.062;34.834;2023-10-13T03:53:31;10.80;;;5.22;;
75935;SDS011;64614;32.062;34.834;2023-10-13T03:56:23;9.80;;;5.60;;
75935;SDS011;64614;32.062;34.834;2023-10-13T03:58:56;10.43;;;5.60;;
75935;SDS011;64614;32.062;34.834;2023-10-13T04:01:32;8.38;;;5.07;;
75935;SDS011;64614;32.062;34.834;2023-10-13T04:04:11;10.40;;;5.20;;
75935;SDS011;64614;32.062;34.834;2023-10-13T04:06:41;11.23;;;5.53;;
75935;SDS011;64614;32.062;34.834;2023-10-13T04:09:16;10.90;;;5.45;;
75935;SDS011;64614;32.062;34.834;2023-10-13T04:11:55;9.43;;;5.05;;
75935;SDS011;64614;32.062;34.834;2023-10-13T04:14:40;9.55;;;5.65;;
75935;SDS011;64614;32.062;34.834;2023-10-13T04:17:27;10.13;;;4.80;;
75935;SDS011;64614;32.062;34.834;2023-10-13T04:19:56;10.25;;;4.82;;
75935;SDS011;64614;32.062;34.834;2023-10-13T04:27:57;10.23;;;4.57;;
75935;SDS011;64614;32.062;34.834;2023-10-13T04:33:25;9.23;;;4.82;;
75935;SDS011;64614;32.062;34.834;2023-10-13T04:36:02;10.23;;;5.22;;
75935;SDS011;64614;32.062;34.834;2023-10-13T04:38:51;9.57;;;4.80;;
75935;SDS011;64614;32.062;34.834;2023-10-13T04:44:07;9.90;;;5.32;;
75935;SDS011;64614;32.062;34.834;2023-10-13T04:46:55;10.10;;;5.07;;
75935;SDS011;64614;32.062;34.834;2023-10-13T04:49:25;10.00;;;5.57;;
75935;SDS011;64614;32.062;34.834;2023-10-13T04:52:14;11.55;;;6.43;;
75935;SDS011;64614;32.062;34.834;2023-10-13T04:55:00;12.02;;;6.57;;
75935;SDS011;64614;32.062;34.834;2023-10-13T04:57:42;11.57;;;6.45;;
75935;SDS011;64614;32.062;34.834;2023-10-13T05:00:11;12.70;;;6.85;;
75935;SDS011;64614;32.062;34.834;2023-10-13T05:02:57;11.77;;;6.90;;
75935;SDS011;64614;32.062;34.834;2023-10-13T05:05:25;12.48;;;6.53;;
75935;SDS011;64614;32.062;34.834;2023-10-13T05:07:51;13.02;;;7.30;;
75935;SDS011;64614;32.062;34.834;2023-10-13T05:13:17;13.80;;;7.50;;
75935;SDS011;64614;32.062;34.834;2023-10-13T05:16:01;13.18;;;7.50;;
75935;SDS011;64614;32.062;34.834;2023-10-13T05:18:45;13.70;;;8.07;;
75935;SDS011;64614;32.062;34.834;2023-10-13T05:21:29;14.05;;;7.40;;
75935;SDS011;64614;32.062;34.834;2023-10-13T05:24:13;12.75;;;7.97;;
75935;SDS011;64614;32.062;34.834;2023-10-13T05:26:58;12.07;;;7.32;;
75935;SDS011;64614;32.062;34.834;2023-10-13T05:29:42;12.88;;;7.93;;
75935;SDS011;64614;32.062;34.834;2023-10-13T05:32:28;12.52;;;7.80;;
75935;SDS011;64614;32.062;34.834;2023-10-13T05:37:47;14.25;;;7.88;;
75935;SDS011;64614;32.062;34.834;2023-10-13T05:40:37;13.50;;;7.93;;
75935;SDS011;64614;32.062;34.834;2023-10-13T05:56:18;13.43;;;8.68;;
75935;SDS011;64614;32.062;34.834;2023-10-13T06:02:18;17.05;;;9.70;;
75935;SDS011;64614;32.062;34.834;2023-10-13T06:05:10;14.52;;;9.88;;
75935;SDS011;64614;32.062;34.834;2023-10-13T06:08:02;15.20;;;10.32;;
75935;SDS011;64614;32.062;34.834;2023-10-13T06:10:47;16.63;;;10.32;;
75935;SDS011;64614;32.062;34.834;2023-10-13T06:16:12;16.98;;;10.60;;
75935;SDS011;64614;32.062;34.834;2023-10-13T06:21:27;14.05;;;9.15;;
75935;SDS011;64614;32.062;34.834;2023-10-13T06:24:18;14.55;;;9.60;;
75935;SDS011;64614;32.062;34.834;2023-10-13T06:27:02;14.02;;;9.02;;
75935;SDS011;64614;32.062;34.834;2023-10-13T06:29:51;15.13;;;8.18;;
75935;SDS011;64614;32.062;34.834;2023-10-13T06:50:29;20.63;;;11.55;;
75935;SDS011;64614;32.062;34.834;2023-10-13T07:05:59;10.07;;;6.97;;
75935;SDS011;64614;32.062;34.834;2023-10-13T07:08:24;12.65;;;7.35;;
75935;SDS011;64614;32.062;34.834;2023-10-13T07:10:54;13.55;;;8.23;;
75935;SDS011;64614;32.062;34.834;2023-10-13T07:29:51;12.98;;;8.25;;
75935;SDS011;64614;32.062;34.834;2023-10-13T07:35:19;11.35;;;6.93;;
75935;SDS011;64614;32.062;34.834;2023-10-13T07:40:24;10.90;;;7.05;;
75935;SDS011;64614;32.062;34.834;2023-10-13T07:42:50;10.15;;;7.03;;
75935;SDS011;64614;32.062;34.834;2023-10-13T07:45:16;14.10;;;8.05;;
75935;SDS011;64614;32.062;34.834;2023-10-13T07:50:28;12.82;;;6.88;;
75935;SDS011;64614;32.062;34.834;2023-10-13T07:58:09;13.10;;;6.57;;
75935;SDS011;64614;32.062;34.834;2023-10-13T08:00:34;12.82;;;6.20;;
75935;SDS011;64614;32.062;34.834;2023-10-13T08:05:33;13.27;;;6.50;;
75935;SDS011;64614;32.062;34.834;2023-10-13T08:08:21;10.20;;;6.35;;
75935;SDS011;64614;32.062;34.834;2023-10-13T08:18:29;12.77;;;6.30;;
75935;SDS011;64614;32.062;34.834;2023-10-13T08:20:58;11.13;;;5.65;;
75935;SDS011;64614;32.062;34.834;2023-10-13T08:23:30;10.25;;;6.40;;
75935;SDS011;64614;32.062;34.834;2023-10-13T08:26:23;9.40;;;5.95;;
75935;SDS011;64614;32.062;34.834;2023-10-13T08:34:08;10.88;;;5.80;;
75935;SDS011;64614;32.062;34.834;2023-10-13T08:36:44;8.98;;;5.93;;
75935;SDS011;64614;32.062;34.834;2023-10-13T08:39:10;9.27;;;6.22;;
75935;SDS011;64614;32.062;34.834;2023-10-13T08:49:53;12.60;;;5.70;;
75935;SDS011;64614;32.062;34.834;2023-10-13T08:52:35;12.65;;;5.65;;
75935;SDS011;64614;32.062;34.834;2023-10-13T08:55:14;11.25;;;6.30;;
75935;SDS011;64614;32.062;34.834;2023-10-13T08:58:01;8.25;;;5.32;;
75935;SDS011;64614;32.062;34.834;2023-10-13T09:00:39;12.27;;;6.15;;
75935;SDS011;64614;32.062;34.834;2023-10-13T09:08:53;10.55;;;6.32;;
75935;SDS011;64614;32.062;34.834;2023-10-13T09:11:33;10.50;;;5.60;;
75935;SDS011;64614;32.062;34.834;2023-10-13T09:19:24;11.05;;;5.85;;
75935;SDS011;64614;32.062;34.834;2023-10-13T09:21:50;10.43;;;5.85;;
75935;SDS011;64614;32.062;34.834;2023-10-13T09:24:19;8.80;;;5.72;;
75935;SDS011;64614;32.062;34.834;2023-10-13T09:26:55;11.65;;;5.88;;
75935;SDS011;64614;32.062;34.834;2023-10-13T09:29:21;10.13;;;6.15;;
75935;SDS011;64614;32.062;34.834;2023-10-13T09:31:59;9.20;;;5.45;;
75935;SDS011;64614;32.062;34.834;2023-10-13T09:39:47;9.13;;;6.13;;
75935;SDS011;64614;32.062;34.834;2023-10-13T09:42:18;9.68;;;6.10;;
75935;SDS011;64614;32.062;34.834;2023-10-13T09:44:44;11.05;;;6.00;;
75935;SDS011;64614;32.062;34.834;2023-10-13T09:47:21;11.75;;;5.80;;
75935;SDS011;64614;32.062;34.834;2023-10-13T09:50:02;10.90;;;6.20;;
75935;SDS011;64614;32.062;34.834;2023-10-13T10:00:09;10.93;;;5.90;;
75935;SDS011;64614;32.062;34.834;2023-10-13T10:03:00;10.13;;;6.00;;
75935;SDS011;64614;32.062;34.834;2023-10-13T10:05:43;9.55;;;5.53;;
75935;SDS011;64614;32.062;34.834;2023-10-13T10:08:28;10.68;;;5.95;;
75935;SDS011;64614;32.062;34.834;2023-10-13T10:13:39;10.82;;;5.70;;
75935;SDS011;64614;32.062;34.834;2023-10-13T10:19:25;10.63;;;5.82;;
75935;SDS011;64614;32.062;34.834;2023-10-13T10:33:06;9.70;;;5.25;;
75935;SDS011;64614;32.062;34.834;2023-10-13T10:35:58;11.95;;;5.65;;
75935;SDS011;64614;32.062;34.834;2023-10-13T10:38:31;11.63;;;5.38;;
75935;SDS011;64614;32.062;34.834;2023-10-13T10:41:12;8.82;;;5.30;;
75935;SDS011;64614;32.062;34.834;2023-10-13T10:46:25;8.43;;;4.97;;
75935;SDS011;64614;32.062;34.834;2023-10-13T11:12:19;6.10;;;3.70;;
75935;SDS011;64614;32.062;34.834;2023-10-13T11:15:03;6.95;;;4.00;;
75935;SDS011;64614;32.062;34.834;2023-10-13T11:17:54;7.50;;;3.85;;
75935;SDS011;64614;32.062;34.834;2023-10-13T11:20:26;6.07;;;4.13;;
75935;SDS011;64614;32.062;34.834;2023-10-13T11:23:18;7.05;;;3.60;;
75935;SDS011;64614;32.062;34.834;2023-10-13T11:33:34;6.80;;;3.88;;
75935;SDS011;64614;32.062;34.834;2023-10-13T11:41:34;7.22;;;3.53;;
75935;SDS011;64614;32.062;34.834;2023-10-13T11:44:03;6.38;;;4.07;;
75935;SDS011;64614;32.062;34.834;2023-10-13T11:49:23;7.78;;;4.18;;
75935;SDS011;64614;32.062;34.834;2023-10-13T11:51:55;6.70;;;3.72;;
75935;SDS011;64614;32.062;34.834;2023-10-13T11:54:43;5.22;;;3.55;;
75935;SDS011;64614;32.062;34.834;2023-10-13T11:57:09;6.47;;;3.63;;
75935;SDS011;64614;32.062;34.834;2023-10-13T11:59:35;6.60;;;3.67;;
75935;SDS011;64614;32.062;34.834;2023-10-13T12:02:06;7.53;;;3.50;;
75935;SDS011;64614;32.062;34.834;2023-10-13T12:04:50;6.00;;;3.55;;
75935;SDS011;64614;32.062;34.834;2023-10-13T12:07:23;5.63;;;3.45;;
75935;SDS011;64614;32.062;34.834;2023-10-13T12:09:52;6.13;;;3.60;;
75935;SDS011;64614;32.062;34.834;2023-10-13T12:12:26;5.90;;;3.83;;
75935;SDS011;64614;32.062;34.834;2023-10-13T12:14:53;8.70;;;4.82;;
75935;SDS011;64614;32.062;34.834;2023-10-13T12:19:54;8.30;;;5.53;;
75935;SDS011;64614;32.062;34.834;2023-10-13T12:22:20;7.20;;;4.88;;
75935;SDS011;64614;32.062;34.834;2023-10-13T12:25:04;9.63;;;5.85;;
75935;SDS011;64614;32.062;34.834;2023-10-13T12:30:31;8.40;;;5.95;;
75935;SDS011;64614;32.062;34.834;2023-10-13T12:33:01;9.55;;;5.72;;
75935;SDS011;64614;32.062;34.834;2023-10-13T12:35:36;8.55;;;5.90;;
75935;SDS011;64614;32.062;34.834;2023-10-13T12:38:23;8.30;;;5.97;;
75935;SDS011;64614;32.062;34.834;2023-10-13T12:41:08;10.40;;;6.13;;
75935;SDS011;64614;32.062;34.834;2023-10-13T12:43:55;9.35;;;6.03;;
75935;SDS011;64614;32.062;34.834;2023-10-13T12:46:45;9.05;;;6.43;;
75935;SDS011;64614;32.062;34.834;2023-10-13T12:49:29;8.95;;;6.25;;
75935;SDS011;64614;32.062;34.834;2023-10-13T12:52:13;9.13;;;5.95;;
75935;SDS011;64614;32.062;34.834;2023-10-13T12:54:50;9.05;;;6.15;;
75935;SDS011;64614;32.062;34.834;2023-10-13T12:57:39;8.77;;;6.65;;
75935;SDS011;64614;32.062;34.834;2023-10-13T13:02:41;9.35;;;7.15;;
75935;SDS011;64614;32.062;34.834;2023-10-13T13:05:07;8.63;;;6.38;;
75935;SDS011;64614;32.062;34.834;2023-10-13T13:07:37;9.15;;;6.15;;
75935;SDS011;64614;32.062;34.834;2023-10-13T13:10:12;9.13;;;6.65;;
75935;SDS011;64614;32.062;34.834;2023-10-13T13:12:39;9.40;;;7.18;;
75935;SDS011;64614;32.062;34.834;2023-10-13T13:15:06;9.32;;;5.90;;
75935;SDS011;64614;32.062;34.834;2023-10-13T13:17:39;8.65;;;6.45;;
75935;SDS011;64614;32.062;34.834;2023-10-13T13:20:05;9.10;;;6.32;;
75935;SDS011;64614;32.062;34.834;2023-10-13T13:22:52;8.73;;;6.15;;
75935;SDS011;64614;32.062;34.834;2023-10-13T13:25:19;8.80;;;6.13;;
75935;SDS011;64614;32.062;34.834;2023-10-13T13:27:51;8.18;;;6.03;;
75935;SDS011;64614;32.062;34.834;2023-10-13T13:30:19;8.85;;;6.30;;
75935;SDS011;64614;32.062;34.834;2023-10-13T13:32:47;8.05;;;5.90;;
75935;SDS011;64614;32.062;34.834;2023-10-13T13:35:14;9.05;;;5.50;;
75935;SDS011;64614;32.062;34.834;2023-10-13T13:37:43;8.50;;;5.90;;
75935;SDS011;64614;32.062;34.834;2023-10-13T13:40:09;8.32;;;5.75;;
75935;SDS011;64614;32.062;34.834;2023-10-13T13:42:40;8.63;;;6.00;;
75935;SDS011;64614;32.062;34.834;2023-10-13T13:45:17;8.07;;;5.22;;
75935;SDS011;64614;32.062;34.834;2023-10-13T13:47:49;7.82;;;5.70;;
75935;SDS011;64614;32.062;34.834;2023-10-13T13:50:21;7.93;;;5.95;;
75935;SDS011;64614;32.062;34.834;2023-10-13T13:52:55;7.50;;;5.50;;
75935;SDS011;64614;32.062;34.834;2023-10-13T13:55:22;8.95;;;5.88;;
75935;SDS011;64614;32.062;34.834;2023-10-13T13:57:49;7.88;;;5.57;;
75935;SDS011;64614;32.062;34.834;2023-10-13T14:00:18;8.68;;;6.05;;
75935;SDS011;64614;32.062;34.834;2023-10-13T14:03:03;8.20;;;5.95;;
75935;SDS011;64614;32.062;34.834;2023-10-13T14:05:29;8.93;;;5.93;;
75935;SDS011;64614;32.062;34.834;2023-10-13T14:07:55;8.80;;;6.20;;
75935;SDS011;64614;32.062;34.834;2023-10-13T14:10:21;7.63;;;5.65;;
75935;SDS011;64614;32.062;34.834;2023-10-13T14:13:00;7.68;;;5.50;;
75935;SDS011;64614;32.062;34.834;2023-10-13T14:15:37;8.23;;;5.82;;
75935;SDS011;64614;32.062;34.834;2023-10-13T14:18:15;8.32;;;5.85;;
75935;SDS011;64614;32.062;34.834;2023-10-13T14:20:41;7.65;;;6.10;;
75935;SDS011;64614;32.062;34.834;2023-10-13T14:23:18;8.55;;;6.55;;
75935;SDS011;64614;32.062;34.834;2023-10-13T14:25:47;8.20;;;6.13;;
75935;SDS011;64614;32.062;34.834;2023-10-13T14:28:13;9.27;;;6.50;;
75935;SDS011;64614;32.062;34.834;2023-10-13T14:30:43;8.85;;;6.05;;
75935;SDS011;64614;32.062;34.834;2023-10-13T14:33:14;8.60;;;6.20;;
75935;SDS011;64614;32.062;34.834;2023-10-13T14:35:40;8.52;;;5.90;;
75935;SDS011;64614;32.062;34.834;2023-10-13T14:38:11;8.70;;;6.22;;
75935;SDS011;64614;32.062;34.834;2023-10-13T14:40:37;7.85;;;6.15;;
75935;SDS011;64614;32.062;34.834;2023-10-13T14:43:03;9.23;;;6.32;;
75935;SDS011;64614;32.062;34.834;2023-10-13T14:45:29;8.50;;;6.00;;
75935;SDS011;64614;32.062;34.834;2023-10-13T14:47:55;8.73;;;6.10;;
75935;SDS011;64614;32.062;34.834;2023-10-13T14:50:21;8.52;;;6.25;;
75935;SDS011;64614;32.062;34.834;2023-10-13T14:52:47;8.23;;;6.28;;
75935;SDS011;64614;32.062;34.834;2023-10-13T14:55:14;9.77;;;6.68;;
75935;SDS011;64614;32.062;34.834;2023-10-13T14:58:03;9.32;;;6.65;;
75935;SDS011;64614;32.062;34.834;2023-10-13T15:00:33;9.88;;;7.05;;
75935;SDS011;64614;32.062;34.834;2023-10-13T15:03:00;9.68;;;6.97;;
75935;SDS011;64614;32.062;34.834;2023-10-13T15:05:26;9.75;;;6.43;;
75935;SDS011;64614;32.062;34.834;2023-10-13T15:10:21;9.70;;;7.00;;
75935;SDS011;64614;32.062;34.834;2023-10-13T15:12:46;10.57;;;7.22;;
75935;SDS011;64614;32.062;34.834;2023-10-13T15:15:14;9.15;;;6.32;;
75935;SDS011;64614;32.062;34.834;2023-10-13T15:17:41;10.25;;;6.65;;
75935;SDS011;64614;32.062;34.834;2023-10-13T15:20:08;8.60;;;6.50;;
75935;SDS011;64614;32.062;34.834;2023-10-13T15:22:44;10.77;;;6.35;;
75935;SDS011;64614;32.062;34.834;2023-10-13T15:25:14;9.45;;;6.32;;
75935;SDS011;64614;32.062;34.834;2023-10-13T15:27:48;9.98;;;6.38;;
75935;SDS011;64614;32.062;34.834;2023-10-13T15:30:27;8.70;;;6.47;;
75935;SDS011;64614;32.062;34.834;2023-10-13T15:33:07;10.73;;;6.60;;
75935;SDS011;64614;32.062;34.834;2023-10-13T15:35:33;10.30;;;6.90;;
75935;SDS011;64614;32.062;34.834;2023-10-13T15:37:59;10.25;;;7.10;;
75935;SDS011;64614;32.062;34.834;2023-10-13T15:40:26;10.50;;;6.97;;
75935;SDS011;64614;32.062;34.834;2023-10-13T15:42:53;11.15;;;7.32;;
75935;SDS011;64614;32.062;34.834;2023-10-13T15:45:24;10.23;;;6.57;;
75935;SDS011;64614;32.062;34.834;2023-10-13T15:47:57;10.07;;;6.63;;
75935;SDS011;64614;32.062;34.834;2023-10-13T15:50:23;9.25;;;6.45;;
75935;SDS011;64614;32.062;34.834;2023-10-13T15:52:49;10.23;;;6.88;;
75935;SDS011;64614;32.062;34.834;2023-10-13T15:55:16;10.32;;;6.88;;
75935;SDS011;64614;32.062;34.834;2023-10-13T15:57:45;9.20;;;6.70;;
75935;SDS011;64614;32.062;34.834;2023-10-13T16:00:18;10.02;;;6.65;;
75935;SDS011;64614;32.062;34.834;2023-10-13T16:02:53;10.13;;;6.10;;
75935;SDS011;64614;32.062;34.834;2023-10-13T16:05:31;9.80;;;6.60;;
75935;SDS011;64614;32.062;34.834;2023-10-13T16:07:59;9.57;;;6.60;;
75935;SDS011;64614;32.062;34.834;2023-10-13T16:10:25;10.77;;;6.85;;
75935;SDS011;64614;32.062;34.834;2023-10-13T16:12:52;9.32;;;7.03;;
75935;SDS011;64614;32.062;34.834;2023-10-13T16:15:18;10.23;;;6.93;;
75935;SDS011;64614;32.062;34.834;2023-10-13T16:17:47;12.00;;;7.40;;
75935;SDS011;64614;32.062;34.834;2023-10-13T16:20:13;10.02;;;6.55;;
75935;SDS011;64614;32.062;34.834;2023-10-13T16:22:45;12.02;;;6.70;;
75935;SDS011;64614;32.062;34.834;2023-10-13T16:25:11;10.18;;;6.47;;
75935;SDS011;64614;32.062;34.834;2023-10-13T16:27:41;12.02;;;7.10;;
75935;SDS011;64614;32.062;34.834;2023-10-13T16:30:14;10.25;;;6.20;;
75935;SDS011;64614;32.062;34.834;2023-10-13T16:32:45;10.43;;;7.05;;
75935;SDS011;64614;32.062;34.834;2023-10-13T16:35:17;10.95;;;7.07;;
75935;SDS011;64614;32.062;34.834;2023-10-13T16:37:46;10.57;;;7.25;;
75935;SDS011;64614;32.062;34.834;2023-10-13T16:40:17;9.77;;;6.07;;
75935;SDS011;64614;32.062;34.834;2023-10-13T16:42:44;10.07;;;6.60;;
75935;SDS011;64614;32.062;34.834;2023-10-13T16:45:13;9.48;;;6.53;;
75935;SDS011;64614;32.062;34.834;2023-10-13T16:47:40;8.55;;;6.65;;
75935;SDS011;64614;32.062;34.834;2023-10-13T16:50:08;9.45;;;5.88;;
75935;SDS011;64614;32.062;34.834;2023-10-13T16:52:39;8.55;;;6.32;;
75935;SDS011;64614;32.062;34.834;2023-10-13T16:55:07;9.25;;;6.32;;
75935;SDS011;64614;32.062;34.834;2023-10-13T16:57:33;8.68;;;6.10;;
75935;SDS011;64614;32.062;34.834;2023-10-13T16:59:58;8.82;;;6.55;;
75935;SDS011;64614;32.062;34.834;2023-10-13T17:02:25;8.85;;;5.90;;
75935;SDS011;64614;32.062;34.834;2023-10-13T17:04:52;9.27;;;6.75;;
75935;SDS011;64614;32.062;34.834;2023-10-13T17:07:22;8.38;;;5.97;;
75935;SDS011;64614;32.062;34.834;2023-10-13T17:09:48;10.00;;;6.20;;
75935;SDS011;64614;32.062;34.834;2023-10-13T17:12:13;10.70;;;6.85;;
75935;SDS011;64614;32.062;34.834;2023-10-13T17:14:39;9.40;;;6.35;;
75935;SDS011;64614;32.062;34.834;2023-10-13T17:17:05;9.30;;;6.50;;
75935;SDS011;64614;32.062;34.834;2023-10-13T17:19:31;9.50;;;6.32;;
75935;SDS011;64614;32.062;34.834;2023-10-13T17:21:56;9.98;;;6.53;;
75935;SDS011;64614;32.062;34.834;2023-10-13T17:24:23;12.00;;;7.10;;
75935;SDS011;64614;32.062;34.834;2023-10-13T17:26:49;9.15;;;6.45;;
75935;SDS011;64614;32.062;34.834;2023-10-13T17:29:15;9.40;;;6.63;;
75935;SDS011;64614;32.062;34.834;2023-10-13T17:31:41;9.05;;;6.60;;
75935;SDS011;64614;32.062;34.834;2023-10-13T17:34:06;8.88;;;6.22;;
75935;SDS011;64614;32.062;34.834;2023-10-13T17:36:32;9.95;;;6.80;;
75935;SDS011;64614;32.062;34.834;2023-10-13T17:38:58;9.65;;;5.57;;
75935;SDS011;64614;32.062;34.834;2023-10-13T17:41:24;8.60;;;5.95;;
75935;SDS011;64614;32.062;34.834;2023-10-13T17:43:50;8.75;;;6.18;;
75935;SDS011;64614;32.062;34.834;2023-10-13T17:46:16;8.57;;;5.40;;
75935;SDS011;64614;32.062;34.834;2023-10-13T17:48:41;7.97;;;5.68;;
75935;SDS011;64614;32.062;34.834;2023-10-13T17:51:10;8.13;;;5.50;;
75935;SDS011;64614;32.062;34.834;2023-10-13T17:53:38;8.82;;;5.35;;
75935;SDS011;64614;32.062;34.834;2023-10-13T17:58:40;8.23;;;5.30;;
75935;SDS011;64614;32.062;34.834;2023-10-13T18:01:11;8.15;;;5.30;;
75935;SDS011;64614;32.062;34.834;2023-10-13T18:03:48;7.82;;;5.28;;
75935;SDS011;64614;32.062;34.834;2023-10-13T18:06:29;7.47;;;5.10;;
75935;SDS011;64614;32.062;34.834;2023-10-13T18:08:56;7.72;;;5.13;;
75935;SDS011;64614;32.062;34.834;2023-10-13T18:11:22;7.95;;;4.90;;
75935;SDS011;64614;32.062;34.834;2023-10-13T18:13:53;8.15;;;5.18;;
75935;SDS011;64614;32.062;34.834;2023-10-13T18:16:20;7.60;;;4.95;;
75935;SDS011;64614;32.062;34.834;2023-10-13T18:18:52;6.97;;;4.80;;
75935;SDS011;64614;32.062;34.834;2023-10-13T18:21:21;7.03;;;5.05;;
75935;SDS011;64614;32.062;34.834;2023-10-13T18:23:47;6.43;;;4.40;;
75935;SDS011;64614;32.062;34.834;2023-10-13T18:26:20;6.57;;;4.72;;
75935;SDS011;64614;32.062;34.834;2023-10-13T18:28:46;7.05;;;5.25;;
75935;SDS011;64614;32.062;34.834;2023-10-13T18:31:15;6.88;;;4.72;;
75935;SDS011;64614;32.062;34.834;2023-10-13T18:33:42;6.53;;;4.45;;
75935;SDS011;64614;32.062;34.834;2023-10-13T18:36:19;6.90;;;4.88;;
75935;SDS011;64614;32.062;34.834;2023-10-13T18:38:51;6.63;;;4.40;;
75935;SDS011;64614;32.062;34.834;2023-10-13T18:41:17;6.25;;;4.32;;
75935;SDS011;64614;32.062;34.834;2023-10-13T18:43:47;6.45;;;4.15;;
75935;SDS011;64614;32.062;34.834;2023-10-13T18:46:22;6.68;;;4.63;;
75935;SDS011;64614;32.062;34.834;2023-10-13T18:48:51;6.10;;;3.90;;